createdAt,value
2018-08-13T00:00:56.840Z,19.30
2018-08-13T00:03:26.535Z,19.30
2018-08-13T00:05:55.164Z,19.30
2018-08-13T00:08:24.881Z,19.20
2018-08-13T00:10:53.521Z,19.30
2018-08-13T00:13:26.617Z,19.30
2018-08-13T00:15:54.729Z,19.20
2018-08-13T00:18:22.552Z,19.30
2018-08-13T00:20:50.820Z,19.30
2018-08-13T00:23:20.173Z,19.30
2018-08-13T00:25:48.545Z,19.30
2018-08-13T00:28:18.570Z,19.30
2018-08-13T00:30:46.481Z,19.50
2018-08-13T00:33:15.230Z,19.30
2018-08-13T00:35:43.505Z,19.30
2018-08-13T00:38:11.897Z,19.20
2018-08-13T00:40:39.804Z,19.20
2018-08-13T00:43:08.961Z,19.20
2018-08-13T00:45:38.504Z,19.20
2018-08-13T00:48:06.737Z,19.10
2018-08-13T00:50:34.636Z,19.00
2018-08-13T00:53:03.404Z,19.10
2018-08-13T00:55:31.251Z,19.10
2018-08-13T00:57:59.389Z,19.20
2018-08-13T01:00:28.067Z,19.20
2018-08-13T01:02:56.370Z,19.10
2018-08-13T01:05:24.177Z,19.10
2018-08-13T01:07:52.072Z,19.00
2018-08-13T01:10:22.548Z,18.90
2018-08-13T01:12:50.869Z,19.00
2018-08-13T01:15:19.760Z,18.90
2018-08-13T01:17:49.165Z,18.90
2018-08-13T01:20:18.651Z,19.00
2018-08-13T01:22:47.255Z,19.00
2018-08-13T01:25:16.861Z,19.00
2018-08-13T01:27:45.217Z,18.90
2018-08-13T01:30:15.688Z,18.90
2018-08-13T01:32:44.013Z,18.90
2018-08-13T01:35:11.841Z,18.80
2018-08-13T01:37:40.597Z,18.80
2018-08-13T01:40:09.900Z,18.70
2018-08-13T01:42:38.554Z,18.70
2018-08-13T01:45:08.008Z,18.70
2018-08-13T01:47:37.397Z,18.60
2018-08-13T01:50:07.372Z,18.60
2018-08-13T01:52:35.688Z,18.60
2018-08-13T01:55:04.112Z,18.60
2018-08-13T01:57:32.959Z,18.60
2018-08-13T02:00:01.713Z,18.60
2018-08-13T02:02:30.070Z,18.60
2018-08-13T02:04:57.962Z,18.60
2018-08-13T02:07:26.310Z,18.50
2018-08-13T02:09:55.030Z,18.50
2018-08-13T02:12:23.836Z,18.50
2018-08-13T02:14:52.053Z,18.50
2018-08-13T02:17:20.259Z,18.50
2018-08-13T02:19:48.185Z,18.50
2018-08-13T02:22:16.912Z,18.40
2018-08-13T02:24:45.225Z,18.40
2018-08-13T02:27:13.604Z,18.40
2018-08-13T02:29:41.985Z,18.30
2018-08-13T02:32:10.770Z,18.40
2018-08-13T02:34:39.417Z,18.40
2018-08-13T02:37:07.972Z,18.40
2018-08-13T02:39:35.901Z,18.20
2018-08-13T02:42:04.589Z,18.40
2018-08-13T02:44:32.834Z,18.40
2018-08-13T02:47:00.725Z,18.40
2018-08-13T02:49:29.597Z,18.40
2018-08-13T02:51:58.245Z,18.30
2018-08-13T02:54:26.644Z,18.30
2018-08-13T02:56:54.805Z,18.30
2018-08-13T02:59:23.045Z,18.20
2018-08-13T03:01:51.722Z,18.10
2018-08-13T03:04:20.021Z,18.10
2018-08-13T03:06:48.168Z,18.10
2018-08-13T03:09:16.858Z,18.10
2018-08-13T03:11:45.136Z,18.10
2018-08-13T03:14:13.409Z,18.00
2018-08-13T03:16:41.299Z,18.00
2018-08-13T03:19:09.821Z,18.00
2018-08-13T03:21:37.733Z,18.00
2018-08-13T03:24:06.418Z,18.00
2018-08-13T03:26:34.285Z,18.00
2018-08-13T03:29:02.765Z,18.00
2018-08-13T03:31:31.127Z,18.00
2018-08-13T03:33:59.590Z,18.00
2018-08-13T03:36:28.712Z,18.00
2018-08-13T03:38:56.592Z,18.10
2018-08-13T03:41:24.953Z,18.00
2018-08-13T03:43:53.649Z,18.00
2018-08-13T03:46:22.033Z,18.00
2018-08-13T03:48:49.961Z,18.10
2018-08-13T03:51:17.864Z,18.10
2018-08-13T03:53:45.763Z,18.10
2018-08-13T03:56:14.236Z,18.10
2018-08-13T03:58:43.185Z,18.10
2018-08-13T04:01:11.473Z,18.10
2018-08-13T04:03:40.981Z,18.10
2018-08-13T04:06:09.681Z,18.10
2018-08-13T04:08:38.049Z,18.10
2018-08-13T04:11:06.906Z,18.10
2018-08-13T04:13:35.225Z,18.10
2018-08-13T04:16:03.357Z,18.10
2018-08-13T04:18:31.272Z,18.00
2018-08-13T04:21:06.505Z,18.10
2018-08-13T04:23:35.597Z,18.20
2018-08-13T04:26:03.849Z,18.20
2018-08-13T04:28:33.389Z,18.20
2018-08-13T04:31:01.261Z,18.20
2018-08-13T04:33:30.507Z,18.20
2018-08-13T04:35:58.352Z,18.20
2018-08-13T04:38:26.554Z,18.20
2018-08-13T04:40:54.436Z,18.10
2018-08-13T04:43:26.965Z,18.10
2018-08-13T04:45:54.797Z,18.20
2018-08-13T04:48:22.709Z,18.20
2018-08-13T04:50:51.048Z,18.20
2018-08-13T04:53:19.489Z,18.10
2018-08-13T04:55:47.966Z,18.20
2018-08-13T04:58:15.872Z,18.30
2018-08-13T05:00:44.002Z,18.40
2018-08-13T05:03:12.286Z,18.40
2018-08-13T05:05:40.598Z,18.40
2018-08-13T05:08:08.773Z,18.50
2018-08-13T05:10:37.090Z,18.60
2018-08-13T05:13:05.428Z,18.70
2018-08-13T05:15:33.814Z,18.80
2018-08-13T05:18:02.145Z,18.80
2018-08-13T05:20:30.534Z,19.00
2018-08-13T05:22:58.857Z,19.10
2018-08-13T05:25:27.121Z,19.10
2018-08-13T05:27:55.812Z,19.20
2018-08-13T05:30:23.774Z,19.30
2018-08-13T05:32:52.161Z,19.40
2018-08-13T05:35:21.467Z,19.40
2018-08-13T05:37:49.813Z,19.50
2018-08-13T05:40:18.121Z,19.60
2018-08-13T05:42:46.794Z,19.60
2018-08-13T05:45:14.596Z,19.70
2018-08-13T05:47:42.932Z,19.80
2018-08-13T05:50:11.321Z,19.90
2018-08-13T05:52:39.937Z,19.90
2018-08-13T05:55:08.864Z,20.10
2018-08-13T05:57:37.165Z,20.20
2018-08-13T06:00:11.013Z,20.30
2018-08-13T06:02:40.828Z,20.60
2018-08-13T06:05:09.466Z,20.80
2018-08-13T06:07:37.377Z,21.10
2018-08-13T06:10:06.513Z,21.30
2018-08-13T06:12:34.649Z,21.60
2018-08-13T06:15:02.884Z,21.80
2018-08-13T06:17:30.792Z,22.00
2018-08-13T06:19:59.550Z,22.20
2018-08-13T06:22:27.813Z,22.40
2018-08-13T06:24:56.096Z,22.60
2018-08-13T06:27:24.269Z,22.80
2018-08-13T06:29:52.545Z,22.90
2018-08-13T06:32:20.821Z,23.00
2018-08-13T06:34:49.513Z,23.10
2018-08-13T06:37:18.388Z,23.20
2018-08-13T06:39:46.613Z,23.30
2018-08-13T06:42:15.664Z,23.30
2018-08-13T06:44:44.058Z,23.30
2018-08-13T06:47:11.998Z,23.50
2018-08-13T06:49:39.843Z,23.50
2018-08-13T06:52:08.421Z,23.50
2018-08-13T06:54:36.305Z,23.70
2018-08-13T06:57:04.984Z,24.00
2018-08-13T06:59:32.749Z,24.10
2018-08-13T07:02:00.690Z,24.10
2018-08-13T07:04:29.029Z,24.30
2018-08-13T07:06:57.270Z,24.30
2018-08-13T07:09:25.141Z,24.50
2018-08-13T07:11:53.544Z,24.60
2018-08-13T07:14:22.217Z,24.80
2018-08-13T07:16:50.477Z,25.20
2018-08-13T07:19:19.143Z,25.40
2018-08-13T07:21:47.882Z,25.40
2018-08-13T07:24:16.609Z,25.40
2018-08-13T07:26:44.844Z,25.60
2018-08-13T07:29:13.121Z,26.00
2018-08-13T07:31:41.453Z,26.20
2018-08-13T07:34:09.287Z,26.60
2018-08-13T07:36:37.165Z,26.60
2018-08-13T07:39:08.337Z,26.60
2018-08-13T07:41:37.473Z,26.60
2018-08-13T07:44:07.801Z,26.40
2018-08-13T07:46:36.806Z,26.40
2018-08-13T07:49:05.474Z,26.50
2018-08-13T07:51:33.414Z,26.70
2018-08-13T07:54:02.134Z,26.80
2018-08-13T07:56:30.038Z,26.70
2018-08-13T07:58:58.389Z,26.50
2018-08-13T08:01:27.070Z,26.50
2018-08-13T08:03:56.061Z,26.50
2018-08-13T08:06:23.952Z,26.90
2018-08-13T08:08:51.837Z,27.10
2018-08-13T08:11:20.657Z,27.20
2018-08-13T08:13:48.895Z,27.40
2018-08-13T08:16:20.788Z,27.30
2018-08-13T08:18:48.629Z,27.40
2018-08-13T08:21:17.384Z,27.90
2018-08-13T08:23:45.580Z,28.50
2018-08-13T08:26:13.422Z,28.60
2018-08-13T08:28:41.800Z,28.70
2018-08-13T08:31:09.617Z,28.70
2018-08-13T08:33:37.946Z,29.00
2018-08-13T08:36:06.480Z,29.30
2018-08-13T08:38:34.797Z,29.20
2018-08-13T08:41:02.629Z,29.10
2018-08-13T08:43:30.549Z,29.10
2018-08-13T08:45:58.263Z,29.10
2018-08-13T08:48:26.534Z,29.50
2018-08-13T08:50:54.437Z,29.70
2018-08-13T08:53:24.294Z,30.00
2018-08-13T08:55:52.070Z,29.90
2018-08-13T08:58:20.829Z,29.90
2018-08-13T09:00:49.539Z,29.70
2018-08-13T09:03:17.681Z,30.00
2018-08-13T09:05:46.012Z,29.70
2018-08-13T09:08:14.216Z,29.70
2018-08-13T09:10:42.262Z,29.70
2018-08-13T09:13:11.083Z,29.50
2018-08-13T09:15:39.723Z,29.40
2018-08-13T09:18:19.081Z,29.50
2018-08-13T09:22:02.657Z,29.60
2018-08-13T09:24:42.282Z,29.70
2018-08-13T09:28:22.288Z,29.90
2018-08-13T09:31:01.400Z,30.00
2018-08-13T09:33:41.217Z,30.00
2018-08-13T09:36:09.084Z,30.20
2018-08-13T09:38:36.990Z,30.30
2018-08-13T09:41:05.301Z,30.20
2018-08-13T09:43:34.061Z,30.00
2018-08-13T09:46:02.023Z,30.00
2018-08-13T09:48:30.910Z,30.00
2018-08-13T09:50:58.858Z,29.80
2018-08-13T09:53:27.119Z,29.60
2018-08-13T09:55:55.062Z,29.50
2018-08-13T09:58:23.832Z,29.40
2018-08-13T10:00:57.904Z,29.30
2018-08-13T10:03:25.964Z,29.30
2018-08-13T10:05:53.841Z,29.30
2018-08-13T10:08:21.989Z,29.40
2018-08-13T10:10:50.380Z,29.60
2018-08-13T10:13:18.370Z,29.50
2018-08-13T10:15:46.637Z,29.70
2018-08-13T10:18:14.671Z,29.70
2018-08-13T10:20:42.972Z,29.80
2018-08-13T10:23:11.721Z,30.20
2018-08-13T10:25:39.545Z,30.00
2018-08-13T10:28:07.797Z,29.80
2018-08-13T10:30:36.238Z,29.90
2018-08-13T10:33:04.864Z,29.90
2018-08-13T10:35:33.252Z,29.90
2018-08-13T10:38:01.831Z,30.10
2018-08-13T10:40:30.598Z,30.40
2018-08-13T10:42:59.305Z,30.70
2018-08-13T10:45:27.570Z,30.60
2018-08-13T10:47:56.924Z,30.40
2018-08-13T10:50:25.781Z,30.30
2018-08-13T10:52:54.054Z,30.20
2018-08-13T10:55:22.337Z,30.10
2018-08-13T10:57:52.024Z,30.20
2018-08-13T11:00:20.315Z,30.50
2018-08-13T11:02:49.030Z,30.80
2018-08-13T11:05:18.307Z,30.60
2018-08-13T11:07:46.176Z,30.50
2018-08-13T11:10:15.817Z,30.60
2018-08-13T11:12:44.140Z,30.90
2018-08-13T11:15:14.953Z,30.80
2018-08-13T11:17:42.780Z,30.90
2018-08-13T11:20:11.334Z,31.20
2018-08-13T11:22:40.456Z,31.30
2018-08-13T11:25:10.345Z,31.00
2018-08-13T11:27:39.137Z,30.60
2018-08-13T11:30:09.170Z,30.40
2018-08-13T11:32:36.949Z,30.10
2018-08-13T11:35:06.176Z,30.00
2018-08-13T11:37:34.183Z,30.20
2018-08-13T11:40:02.190Z,30.40
2018-08-13T11:42:30.941Z,30.60
2018-08-13T11:45:00.058Z,30.80
2018-08-13T11:47:27.936Z,30.90
2018-08-13T11:49:55.813Z,30.80
2018-08-13T11:52:24.561Z,31.00
2018-08-13T11:54:52.777Z,31.30
2018-08-13T11:57:21.008Z,31.50
2018-08-13T11:59:49.285Z,31.80
2018-08-13T12:02:17.969Z,31.60
2018-08-13T12:04:46.204Z,31.20
2018-08-13T12:07:14.979Z,31.20
2018-08-13T12:09:43.396Z,31.20
2018-08-13T12:12:12.517Z,31.50
2018-08-13T12:14:41.198Z,31.60
2018-08-13T12:17:09.110Z,31.80
2018-08-13T12:19:37.604Z,31.90
2018-08-13T12:22:06.082Z,32.10
2018-08-13T12:24:34.681Z,32.50
2018-08-13T12:27:02.945Z,32.80
2018-08-13T12:29:31.369Z,32.90
2018-08-13T12:31:59.605Z,33.10
2018-08-13T12:34:27.916Z,33.30
2018-08-13T12:37:02.970Z,33.30
2018-08-13T12:39:31.640Z,33.40
2018-08-13T12:42:00.429Z,32.90
2018-08-13T12:44:28.825Z,32.50
2018-08-13T12:46:56.718Z,32.30
2018-08-13T12:49:24.761Z,32.10
2018-08-13T12:51:53.006Z,31.80
2018-08-13T12:54:21.445Z,31.50
2018-08-13T12:56:49.560Z,31.50
2018-08-13T12:59:17.453Z,32.20
2018-08-13T13:01:46.192Z,33.10
2018-08-13T13:04:14.622Z,34.00
2018-08-13T13:06:42.801Z,34.90
2018-08-13T13:09:12.393Z,35.40
2018-08-13T13:11:41.724Z,35.30
2018-08-13T13:14:09.974Z,34.90
2018-08-13T13:16:38.376Z,34.30
2018-08-13T13:19:07.301Z,34.00
2018-08-13T13:21:35.605Z,34.00
2018-08-13T13:24:04.220Z,33.60
2018-08-13T13:26:32.485Z,32.80
2018-08-13T13:29:00.864Z,32.30
2018-08-13T13:31:28.732Z,31.60
2018-08-13T13:33:57.684Z,31.20
2018-08-13T13:36:25.997Z,30.70
2018-08-13T13:38:55.372Z,30.30
2018-08-13T13:41:23.236Z,30.10
2018-08-13T13:43:51.397Z,29.70
2018-08-13T13:46:20.164Z,29.50
2018-08-13T13:48:49.340Z,29.30
2018-08-13T13:51:17.501Z,28.90
2018-08-13T13:53:45.853Z,28.70
2018-08-13T13:56:14.574Z,28.40
2018-08-13T13:58:43.042Z,28.10
2018-08-13T14:01:11.313Z,28.10
2018-08-13T14:03:39.225Z,27.80
2018-08-13T14:06:07.354Z,26.80
2018-08-13T14:08:35.289Z,25.90
2018-08-13T14:11:03.292Z,25.20
2018-08-13T14:13:31.709Z,24.80
2018-08-13T14:15:59.615Z,23.60
2018-08-13T14:18:27.812Z,22.20
2018-08-13T14:20:55.653Z,21.00
2018-08-13T14:23:23.549Z,19.70
2018-08-13T14:25:51.384Z,19.00
2018-08-13T14:28:19.992Z,18.60
2018-08-13T14:30:48.176Z,18.30
2018-08-13T14:33:16.450Z,18.00
2018-08-13T14:35:44.836Z,17.80
2018-08-13T14:38:13.530Z,17.60
2018-08-13T14:40:42.216Z,17.50
2018-08-13T14:43:10.532Z,17.30
2018-08-13T14:45:38.341Z,17.30
2018-08-13T14:48:06.520Z,17.40
2018-08-13T14:50:34.507Z,17.40
2018-08-13T14:53:03.698Z,17.50
2018-08-13T14:55:32.329Z,17.50
2018-08-13T14:58:00.713Z,17.50
2018-08-13T15:00:31.557Z,17.60
2018-08-13T15:02:59.436Z,17.60
2018-08-13T15:05:27.663Z,17.50
2018-08-13T15:07:55.524Z,17.40
2018-08-13T15:10:24.737Z,17.40
2018-08-13T15:12:53.096Z,17.40
2018-08-13T15:15:21.004Z,17.50
2018-08-13T15:17:49.189Z,17.60
2018-08-13T15:20:21.976Z,17.60
2018-08-13T15:22:50.810Z,17.60
2018-08-13T15:25:21.329Z,17.70
2018-08-13T15:27:49.299Z,17.70
2018-08-13T15:30:19.170Z,17.80
2018-08-13T15:32:49.021Z,17.90
2018-08-13T15:35:17.904Z,18.00
2018-08-13T15:37:46.409Z,18.10
2018-08-13T15:40:14.772Z,18.10
2018-08-13T15:42:44.948Z,18.30
2018-08-13T15:45:15.441Z,18.40
2018-08-13T15:47:44.074Z,18.50
2018-08-13T15:50:14.398Z,18.50
2018-08-13T15:52:44.064Z,18.60
2018-08-13T15:55:12.549Z,18.50
2018-08-13T15:57:41.309Z,18.50
2018-08-13T16:00:12.654Z,18.50
2018-08-13T16:02:41.653Z,18.20
2018-08-13T16:05:10.610Z,18.40
2018-08-13T16:07:38.918Z,18.40
2018-08-13T16:10:08.900Z,18.30
2018-08-13T16:12:36.797Z,18.40
2018-08-13T16:15:05.284Z,18.40
2018-08-13T16:17:33.580Z,18.50
2018-08-13T16:20:01.901Z,18.70
2018-08-13T16:22:30.112Z,18.70
2018-08-13T16:24:58.053Z,18.80
2018-08-13T16:27:27.640Z,18.80
2018-08-13T16:29:56.026Z,18.80
2018-08-13T16:32:25.466Z,18.90
2018-08-13T16:34:54.416Z,18.90
2018-08-13T16:37:22.278Z,18.80
2018-08-13T16:39:51.073Z,18.80
2018-08-13T16:42:20.349Z,18.90
2018-08-13T16:44:49.059Z,18.80
2018-08-13T16:47:16.909Z,18.90
2018-08-13T16:49:45.666Z,19.00
2018-08-13T16:52:14.339Z,19.10
2018-08-13T16:54:42.573Z,19.00
2018-08-13T16:57:12.867Z,19.00
2018-08-13T16:59:41.225Z,19.10
2018-08-13T17:02:09.181Z,19.20
2018-08-13T17:04:37.128Z,19.30
2018-08-13T17:07:05.640Z,19.30
2018-08-13T17:09:34.180Z,19.30
2018-08-13T17:12:03.249Z,19.40
2018-08-13T17:14:31.609Z,19.20
2018-08-13T17:17:00.180Z,19.10
2018-08-13T17:19:29.174Z,19.10
2018-08-13T17:21:58.693Z,19.00
2018-08-13T17:24:26.953Z,19.10
2018-08-13T17:26:55.405Z,19.00
2018-08-13T17:29:23.265Z,19.00
2018-08-13T17:31:51.682Z,19.10
2018-08-13T17:34:20.434Z,19.20
2018-08-13T17:36:48.705Z,19.20
2018-08-13T17:39:17.365Z,19.20
2018-08-13T17:41:47.773Z,19.10
2018-08-13T17:44:16.069Z,18.90
2018-08-13T17:46:43.973Z,18.80
2018-08-13T17:49:12.169Z,18.70
2018-08-13T17:51:40.899Z,18.70
2018-08-13T17:54:09.867Z,18.60
2018-08-13T17:56:38.744Z,18.60
2018-08-13T17:59:06.586Z,18.50
2018-08-13T18:01:35.256Z,18.40
2018-08-13T18:04:03.105Z,18.30
2018-08-13T18:06:31.336Z,18.30
2018-08-13T18:08:59.656Z,18.40
2018-08-13T18:11:27.958Z,18.20
2018-08-13T18:13:55.885Z,18.20
2018-08-13T18:16:24.912Z,18.20
2018-08-13T18:18:53.544Z,18.20
2018-08-13T18:21:22.306Z,18.20
2018-08-13T18:23:51.057Z,18.20
2018-08-13T18:26:19.502Z,18.30
2018-08-13T18:28:51.151Z,18.30
2018-08-13T18:31:20.042Z,18.30
2018-08-13T18:33:50.168Z,18.40
2018-08-13T18:36:24.418Z,18.40
2018-08-13T18:38:53.533Z,18.30
2018-08-13T18:41:21.418Z,18.40
2018-08-13T18:43:50.325Z,18.40
2018-08-13T18:46:19.428Z,18.40
2018-08-13T18:48:49.407Z,18.40
2018-08-13T18:51:18.033Z,18.30
2018-08-13T18:53:46.393Z,18.40
2018-08-13T18:56:14.993Z,18.40
2018-08-13T18:58:45.661Z,18.40
2018-08-13T19:01:13.904Z,18.30
2018-08-13T19:03:42.528Z,18.30
2018-08-13T19:06:10.422Z,18.10
2018-08-13T19:11:22.649Z,18.20
2018-08-13T19:13:51.064Z,18.20
2018-08-13T19:16:19.027Z,18.20
2018-08-13T19:18:46.906Z,18.30
2018-08-13T19:21:15.565Z,18.20
2018-08-13T19:23:43.500Z,18.40
2018-08-13T19:26:11.382Z,18.30
2018-08-13T19:28:40.093Z,18.30
2018-08-13T19:31:08.021Z,18.40
2018-08-13T19:33:35.899Z,18.40
2018-08-13T19:36:04.535Z,18.40
2018-08-13T19:38:33.292Z,18.40
2018-08-13T19:41:01.286Z,18.50
2018-08-13T19:43:40.640Z,18.50
2018-08-13T19:46:09.468Z,18.80
2018-08-13T19:48:37.532Z,18.50
2018-08-13T19:51:06.243Z,18.30
2018-08-13T19:53:34.132Z,18.30
2018-08-13T19:56:03.013Z,18.30
2018-08-13T19:58:38.117Z,18.20
2018-08-13T20:01:06.634Z,18.10
2018-08-13T20:03:36.240Z,18.20
2018-08-13T20:06:04.262Z,18.20
2018-08-13T20:08:33.065Z,18.20
2018-08-13T20:11:02.405Z,18.10
2018-08-13T20:13:35.643Z,18.10
2018-08-13T20:16:03.668Z,18.10
2018-08-13T20:18:31.866Z,17.90
2018-08-13T20:21:00.281Z,17.90
2018-08-13T20:23:29.420Z,17.90
2018-08-13T20:25:58.233Z,17.80
2018-08-13T20:28:27.877Z,17.80
2018-08-13T20:30:56.189Z,17.70
2018-08-13T20:33:25.041Z,17.80
2018-08-13T20:35:53.356Z,17.80
2018-08-13T20:38:21.841Z,17.70
2018-08-13T20:40:50.109Z,17.60
2018-08-13T20:43:18.445Z,17.70
2018-08-13T20:45:46.664Z,17.60
2018-08-13T20:48:15.128Z,17.60
2018-08-13T20:50:44.539Z,17.60
2018-08-13T20:53:13.232Z,17.60
2018-08-13T20:55:42.029Z,17.70
2018-08-13T20:58:10.358Z,17.60
2018-08-13T21:00:38.581Z,17.60
2018-08-13T21:03:06.479Z,17.60
2018-08-13T21:05:35.240Z,17.70
2018-08-13T21:08:03.404Z,17.70
2018-08-13T21:10:31.996Z,17.80
2018-08-13T21:13:02.689Z,17.80
2018-08-13T21:15:31.272Z,17.80
2018-08-13T21:17:59.592Z,17.80
2018-08-13T21:20:28.817Z,17.80
2018-08-13T21:22:57.165Z,17.90
2018-08-13T21:25:25.514Z,17.90
2018-08-13T21:27:53.965Z,17.80
2018-08-13T21:30:22.710Z,17.80
2018-08-13T21:32:51.710Z,17.70
2018-08-13T21:35:22.265Z,17.60
2018-08-13T21:37:50.758Z,17.50
2018-08-13T21:40:19.511Z,17.50
2018-08-13T21:42:47.863Z,17.50
2018-08-13T21:45:15.685Z,17.40
2018-08-13T21:47:44.661Z,17.30
2018-08-13T21:50:16.060Z,17.20
2018-08-13T21:52:44.605Z,17.20
2018-08-13T21:55:12.843Z,17.10
2018-08-13T21:57:41.234Z,17.00
2018-08-13T22:00:20.745Z,17.00
2018-08-13T22:02:48.664Z,16.90
2018-08-13T22:05:17.217Z,16.80
2018-08-13T22:07:45.544Z,16.80
2018-08-13T22:10:14.187Z,16.70
2018-08-13T22:12:42.397Z,16.70
2018-08-13T22:15:23.322Z,16.90
2018-08-13T22:17:52.630Z,17.00
2018-08-13T22:20:21.990Z,16.80
2018-08-13T22:22:50.210Z,16.70
2018-08-13T22:25:22.109Z,16.70
2018-08-13T22:27:50.932Z,16.50
2018-08-13T22:30:19.745Z,16.50
2018-08-13T22:32:48.731Z,16.50
2018-08-13T22:35:17.228Z,16.60
2018-08-13T22:37:45.802Z,16.70
2018-08-13T22:40:18.333Z,16.70
2018-08-13T22:42:46.757Z,16.70
2018-08-13T22:45:17.380Z,16.80
2018-08-13T22:47:45.229Z,16.70
2018-08-13T22:50:13.276Z,16.70
2018-08-13T22:52:41.101Z,16.80
2018-08-13T22:55:11.438Z,17.00
2018-08-13T22:57:39.249Z,17.10
2018-08-13T23:00:11.561Z,17.20
2018-08-13T23:02:39.544Z,17.10
2018-08-13T23:05:09.657Z,17.20
2018-08-13T23:07:39.160Z,17.20
2018-08-13T23:10:07.762Z,17.20
2018-08-13T23:12:37.573Z,17.10
2018-08-13T23:15:09.367Z,17.20
2018-08-13T23:17:38.977Z,17.20
2018-08-13T23:20:10.489Z,17.20
2018-08-13T23:22:50.044Z,17.10
2018-08-13T23:25:18.521Z,17.20
2018-08-13T23:27:47.757Z,17.10
2018-08-13T23:30:16.560Z,17.10
2018-08-13T23:32:46.108Z,17.10
2018-08-13T23:35:15.189Z,17.10
2018-08-13T23:37:43.693Z,17.10
2018-08-13T23:40:11.496Z,17.10
2018-08-13T23:42:40.185Z,17.00
2018-08-13T23:45:10.518Z,17.00
2018-08-13T23:47:38.689Z,16.90
2018-08-13T23:50:08.240Z,16.90
2018-08-13T23:52:36.713Z,16.90
2018-08-13T23:55:05.856Z,16.80
2018-08-13T23:57:34.148Z,16.70
